LiveATC.Net - Listen to live air traffic control over the Internet!


ICAO: KSDM  IATA: SDM   Airport: Brown Field Municipal Airport
City: San Diego   State/Province: California
Country: United States   Continent: North America
KSDM METAR Weather: KSDM 251053Z AUTO 11006KT 10SM CLR 12/07 A2983 RMK AO2 SLP097 T01220067
KSDM Flight Activity (FlightAware)
KSDM Airport Info   (AirNav) (iFlightPlanner)
KSDM VFR Sectional Chart   (iFlightPlanner) 
KSDM IFR Low Chart   (iFlightPlanner) 
KSDM Tower
Feed Status: UP   Listeners: 0
Listen right in your browser - requires Flash (in browser, requires Flash)
Click here to listen with your own player (launches your MP3 player)
KSDM Tower Audio Archives
FacilityFrequency
Brown Tower128.250


NOTICE

Unauthorized use prohibited. See LiveATC.net Terms of Service


Find LiveATC Audio Streams


Airport/ARTCC Code

Frequency Search
(e.g., 124.400, 128.75)
Site-wide search
 


Browse LiveATC Feeds
LiveATC Coverage Map
Top 50 LiveATC Feeds
Bad Weather Areas

LiveATC FAQ
Offer a LiveATC Feed
Contact LiveATC.net
Press Inquiries

LiveATC on iPhone
LiveATC on Android

Windows Phone
Windows 8/10

LiveATC Mobile
(Mobile browser)

ATC Audio Archives
Interesting Recordings

LiveATC Forums


Home Page
About LiveATC.net
Make a Donation
LiveATC Store

Terms of Use
Privacy Policy

Canadian Air Freqs

AIRMETs/SIGMETs

FAA Airport Status
Nat'l Airspace Status
Arrival Demand Charts


Server Software By:
Icecast.org
Liquidsoap